Time;durP1;ratioP1;P1;durP2;ratioP2;P2;SDS_P1;SDS_P2;PMS_P1;PMS_P2;Temp;Humidity;BMP_temperature;BMP_pressure;BME280_temperature;BME280_humidity;BME280_pressure;Samples;Min_cycle;Max_cycle;Signal;HPM_P1;HPM_P2
2023/01/30 00:00:21;;;;;;;34.05;17.38;;;;;;;;;;5007559;28;20453;-62
2023/01/30 00:02:46;;;;;;;43.15;15.65;;;;;;;;;;5011585;28;20471;-61
2023/01/30 00:05:11;;;;;;;37.33;16.35;;;;;;;;;;5008673;28;20045;-62
2023/01/30 00:07:37;;;;;;;31.92;14.23;;;;;;;;;;5008969;28;20034;-63
2023/01/30 00:10:02;;;;;;;39.88;15.65;;;;;;;;;;5009586;28;20033;-63
2023/01/30 00:12:28;;;;;;;34.65;18.13;;;;;;;;;;5010449;28;20045;-62
2023/01/30 00:14:53;;;;;;;34.70;14.95;;;;;;;;;;5009059;28;20030;-62
2023/01/30 00:17:18;;;;;;;36.20;16.10;;;;;;;;;;5008501;28;20088;-62
2023/01/30 00:19:44;;;;;;;34.63;15.55;;;;;;;;;;5010391;28;20407;-61
2023/01/30 00:22:09;;;;;;;35.35;16.67;;;;;;;;;;5009640;28;20056;-61
2023/01/30 00:24:34;;;;;;;34.97;16.20;;;;;;;;;;5008177;28;20026;-62
2023/01/30 00:27:00;;;;;;;38.25;18.00;;;;;;;;;;5010791;28;20029;-61
2023/01/30 00:29:25;;;;;;;43.33;17.90;;;;;;;;;;5009491;28;20541;-62
2023/01/30 00:31:50;;;;;;;41.17;18.52;;;;;;;;;;5012255;28;20038;-63
2023/01/30 00:34:16;;;;;;;39.20;16.70;;;;;;;;;;5006579;28;20036;-60
2023/01/30 00:36:41;;;;;;;36.22;16.27;;;;;;;;;;5007914;28;20046;-62
2023/01/30 00:39:07;;;;;;;40.10;17.80;;;;;;;;;;5009345;28;20038;-62
2023/01/30 00:47:07;;;;;;;34.72;15.73;;;;;;;;;;5005576;28;20062;-62
2023/01/30 00:49:34;;;;;;;38.42;18.08;;;;;;;;;;5008432;28;20025;-61
2023/01/30 00:52:00;;;;;;;35.30;15.77;;;;;;;;;;5010617;28;20030;-62
2023/01/30 00:54:25;;;;;;;31.15;15.43;;;;;;;;;;5010004;28;20038;-62
2023/01/30 00:56:51;;;;;;;42.50;17.33;;;;;;;;;;5009384;28;20040;-62
2023/01/30 00:59:16;;;;;;;37.15;17.05;;;;;;;;;;5006663;28;20399;-61
2023/01/30 01:01:42;;;;;;;34.67;14.98;;;;;;;;;;5009660;28;20058;-62
2023/01/30 01:04:09;;;;;;;32.00;16.00;;;;;;;;;;5009316;28;20096;-62
2023/01/30 01:06:35;;;;;;;47.85;24.02;;;;;;;;;;5002663;28;20038;-62
2023/01/30 01:09:01;;;;;;;30.45;14.90;;;;;;;;;;5011847;28;20061;-62
2023/01/30 01:11:27;;;;;;;38.40;15.95;;;;;;;;;;5009638;28;20053;-62
2023/01/30 01:13:57;;;;;;;32.22;15.82;;;;;;;;;;5010971;28;20380;-62
2023/01/30 01:16:24;;;;;;;38.28;17.70;;;;;;;;;;5010053;28;20030;-61
2023/01/30 01:18:50;;;;;;;36.22;15.55;;;;;;;;;;4997910;28;20038;-61
2023/01/30 01:21:17;;;;;;;41.08;18.10;;;;;;;;;;5000661;28;20049;-61
2023/01/30 01:23:42;;;;;;;46.90;20.63;;;;;;;;;;5010130;28;20030;-62
2023/01/30 01:26:08;;;;;;;45.33;18.58;;;;;;;;;;5007548;28;20092;-61
2023/01/30 01:28:33;;;;;;;46.30;18.92;;;;;;;;;;5009425;28;20122;-63
2023/01/30 01:30:59;;;;;;;30.40;13.65;;;;;;;;;;5010331;28;20034;-64
2023/01/30 01:33:28;;;;;;;34.97;14.60;;;;;;;;;;5008113;28;20585;-63
2023/01/30 01:35:56;;;;;;;50.75;19.88;;;;;;;;;;5006329;28;20064;-64
2023/01/30 01:38:22;;;;;;;45.47;18.55;;;;;;;;;;5007867;28;20041;-64
2023/01/30 01:41:04;;;;;;;45.22;19.75;;;;;;;;;;5003146;28;20038;-65
2023/01/30 01:43:54;;;;;;;43.72;18.23;;;;;;;;;;5001997;28;20121;-65
2023/01/30 01:46:25;;;;;;;47.33;18.60;;;;;;;;;;5005370;28;20430;-65
2023/01/30 01:48:55;;;;;;;42.08;19.63;;;;;;;;;;5007467;28;20065;-64
2023/01/30 01:51:58;;;;;;;65.85;23.65;;;;;;;;;;5009313;28;20030;-65
2023/01/30 01:54:34;;;;;;;55.25;24.98;;;;;;;;;;5007989;28;20349;-63
2023/01/30 01:57:10;;;;;;;49.50;20.27;;;;;;;;;;5008125;28;20387;-62
2023/01/30 01:59:46;;;;;;;51.83;19.75;;;;;;;;;;5008308;28;20038;-63
2023/01/30 02:02:13;;;;;;;61.25;22.65;;;;;;;;;;5009412;28;20483;-62
2023/01/30 02:05:01;;;;;;;46.85;18.73;;;;;;;;;;5006574;28;20042;-61
2023/01/30 02:07:32;;;;;;;52.38;21.52;;;;;;;;;;5010543;28;20773;-61
2023/01/30 02:09:57;;;;;;;55.38;21.10;;;;;;;;;;5008245;28;20093;-63
2023/01/30 02:12:24;;;;;;;46.15;20.98;;;;;;;;;;5009786;28;20038;-63
2023/01/30 02:14:50;;;;;;;41.80;21.20;;;;;;;;;;5013943;28;20037;-62
2023/01/30 02:17:15;;;;;;;51.55;20.85;;;;;;;;;;5010777;28;20038;-63
2023/01/30 02:19:48;;;;;;;40.13;18.92;;;;;;;;;;5014336;28;20327;-62
2023/01/30 02:22:24;;;;;;;57.70;24.23;;;;;;;;;;5011804;28;20037;-63
2023/01/30 02:25:14;;;;;;;36.15;16.52;;;;;;;;;;5013707;28;20057;-62
2023/01/30 02:27:45;;;;;;;54.95;26.23;;;;;;;;;;5010144;28;20036;-62
2023/01/30 02:30:32;;;;;;;47.03;23.38;;;;;;;;;;5011708;28;20034;-62
2023/01/30 02:33:22;;;;;;;47.25;19.73;;;;;;;;;;5014438;28;20034;-63
2023/01/30 02:35:48;;;;;;;39.10;17.30;;;;;;;;;;5012090;28;20030;-61
2023/01/30 02:38:41;;;;;;;41.80;17.77;;;;;;;;;;5010970;28;20724;-63
2023/01/30 02:41:19;;;;;;;36.10;17.50;;;;;;;;;;5010975;28;20034;-62
2023/01/30 02:43:57;;;;;;;29.85;14.55;;;;;;;;;;5008410;28;20044;-62
2023/01/30 02:46:30;;;;;;;39.08;18.88;;;;;;;;;;5013339;28;20439;-62
2023/01/30 02:49:19;;;;;;;33.78;17.17;;;;;;;;;;5008807;28;20057;-61
2023/01/30 02:51:48;;;;;;;35.22;16.63;;;;;;;;;;5012440;28;20049;-62
2023/01/30 02:54:14;;;;;;;45.22;20.98;;;;;;;;;;5011124;28;20037;-62
2023/01/30 02:56:56;;;;;;;40.47;17.92;;;;;;;;;;5012690;28;20038;-62
2023/01/30 02:59:33;;;;;;;37.33;18.95;;;;;;;;;;5011819;28;20042;-62
2023/01/30 03:02:04;;;;;;;32.42;15.93;;;;;;;;;;5009423;28;20034;-62
2023/01/30 03:05:06;;;;;;;34.22;15.73;;;;;;;;;;5010799;28;20030;-62
2023/01/30 03:07:47;;;;;;;38.10;18.42;;;;;;;;;;5012849;28;20850;-62
2023/01/30 03:10:35;;;;;;;37.72;15.65;;;;;;;;;;5010150;28;20041;-62
2023/01/30 03:13:54;;;;;;;28.05;12.65;;;;;;;;;;4994149;28;20034;-63
2023/01/30 03:16:30;;;;;;;26.67;13.70;;;;;;;;;;5006745;28;20073;-61
2023/01/30 03:18:58;;;;;;;45.28;20.30;;;;;;;;;;5006895;28;20026;-64
2023/01/30 03:21:23;;;;;;;27.92;15.07;;;;;;;;;;5010668;28;20467;-62
2023/01/30 03:23:49;;;;;;;28.83;12.70;;;;;;;;;;5012346;28;20041;-63
2023/01/30 03:26:23;;;;;;;36.05;17.73;;;;;;;;;;5011899;28;20438;-63
2023/01/30 03:28:50;;;;;;;42.45;18.92;;;;;;;;;;5011504;28;20044;-62
2023/01/30 03:31:15;;;;;;;30.10;13.70;;;;;;;;;;5011465;28;20044;-63
2023/01/30 03:33:41;;;;;;;40.25;15.23;;;;;;;;;;5010643;28;20037;-63
2023/01/30 03:36:07;;;;;;;29.92;14.68;;;;;;;;;;5011479;28;20053;-62
2023/01/30 03:38:34;;;;;;;39.55;21.33;;;;;;;;;;5010044;28;20041;-64
2023/01/30 03:41:00;;;;;;;39.78;19.17;;;;;;;;;;5010492;28;20033;-63
2023/01/30 03:43:25;;;;;;;34.55;18.17;;;;;;;;;;5011375;28;20421;-63
2023/01/30 03:45:50;;;;;;;28.17;14.68;;;;;;;;;;5010455;28;20803;-63
2023/01/30 03:48:16;;;;;;;36.55;17.63;;;;;;;;;;5009551;28;20038;-64
2023/01/30 03:50:42;;;;;;;34.72;15.82;;;;;;;;;;5011555;28;20041;-62
2023/01/30 03:53:07;;;;;;;39.85;20.58;;;;;;;;;;5010411;28;20427;-62
2023/01/30 03:55:32;;;;;;;39.53;20.90;;;;;;;;;;5006049;28;20045;-62
2023/01/30 03:57:58;;;;;;;33.25;17.30;;;;;;;;;;5011682;28;20053;-62
2023/01/30 04:00:23;;;;;;;32.80;15.38;;;;;;;;;;5009748;28;20184;-62
2023/01/30 04:02:49;;;;;;;33.13;15.43;;;;;;;;;;5011778;28;20053;-62
2023/01/30 04:05:14;;;;;;;42.63;19.13;;;;;;;;;;5007095;28;20176;-63
2023/01/30 04:07:40;;;;;;;31.60;15.48;;;;;;;;;;5012420;28;20593;-63
2023/01/30 04:10:05;;;;;;;29.95;14.77;;;;;;;;;;5010063;28;20037;-62
2023/01/30 04:12:31;;;;;;;43.30;24.67;;;;;;;;;;5011847;28;20116;-62
2023/01/30 04:14:56;;;;;;;35.33;16.52;;;;;;;;;;5011098;28;20026;-62
2023/01/30 04:17:22;;;;;;;38.35;16.55;;;;;;;;;;5011453;28;20045;-62
2023/01/30 04:19:47;;;;;;;42.17;16.60;;;;;;;;;;5002277;28;20045;-62
2023/01/30 04:22:12;;;;;;;28.13;14.95;;;;;;;;;;5004728;28;20101;-62
2023/01/30 04:24:38;;;;;;;32.63;14.00;;;;;;;;;;5009698;28;20478;-64
2023/01/30 04:27:03;;;;;;;35.60;15.68;;;;;;;;;;5010310;28;20087;-62
2023/01/30 04:29:29;;;;;;;38.38;17.52;;;;;;;;;;5009505;28;20034;-62
2023/01/30 04:31:54;;;;;;;40.28;15.95;;;;;;;;;;5009802;28;20047;-62
2023/01/30 04:34:19;;;;;;;41.55;22.88;;;;;;;;;;5008674;28;20105;-62
2023/01/30 04:36:45;;;;;;;42.65;16.42;;;;;;;;;;5009525;28;20073;-62
2023/01/30 04:39:10;;;;;;;41.70;20.48;;;;;;;;;;5008465;28;21738;-63
2023/01/30 04:41:36;;;;;;;35.22;17.80;;;;;;;;;;5010199;28;20183;-63
2023/01/30 04:44:01;;;;;;;34.90;14.98;;;;;;;;;;5008365;28;20033;-62
2023/01/30 04:46:26;;;;;;;31.42;15.25;;;;;;;;;;5010969;28;20442;-63
2023/01/30 04:48:52;;;;;;;36.45;15.73;;;;;;;;;;5003569;28;20471;-62
2023/01/30 04:51:17;;;;;;;36.65;16.38;;;;;;;;;;5007738;28;20057;-62
2023/01/30 04:53:43;;;;;;;39.95;18.77;;;;;;;;;;5006788;28;20069;-63
2023/01/30 04:56:08;;;;;;;39.78;18.90;;;;;;;;;;5009578;28;20356;-62
2023/01/30 04:58:33;;;;;;;42.15;18.58;;;;;;;;;;5008499;28;20498;-62
2023/01/30 05:01:29;;;;;;;34.47;16.05;;;;;;;;;;4992340;28;20092;-62
2023/01/30 05:03:54;;;;;;;32.55;15.63;;;;;;;;;;5005694;28;20488;-63
2023/01/30 05:06:21;;;;;;;34.97;14.50;;;;;;;;;;5010852;28;20064;-62
2023/01/30 05:08:51;;;;;;;37.72;16.40;;;;;;;;;;5012072;28;20034;-63
2023/01/30 05:11:17;;;;;;;30.00;15.05;;;;;;;;;;5010915;28;20026;-62
2023/01/30 05:13:43;;;;;;;37.78;16.48;;;;;;;;;;5012071;28;20116;-63
2023/01/30 05:16:09;;;;;;;30.55;16.35;;;;;;;;;;5009652;28;20153;-62
2023/01/30 05:18:34;;;;;;;36.00;15.82;;;;;;;;;;5008900;28;20034;-63
2023/01/30 05:21:05;;;;;;;30.33;14.10;;;;;;;;;;5009814;28;20033;-63
2023/01/30 05:23:30;;;;;;;32.93;15.33;;;;;;;;;;5008622;28;20045;-63
2023/01/30 05:25:56;;;;;;;30.42;14.45;;;;;;;;;;5009937;28;20042;-63
2023/01/30 05:28:21;;;;;;;29.63;14.82;;;;;;;;;;5009597;28;20061;-63
2023/01/30 05:30:46;;;;;;;39.20;17.38;;;;;;;;;;5009051;28;20434;-63
2023/01/30 05:33:12;;;;;;;39.08;17.70;;;;;;;;;;5008117;28;20116;-63
2023/01/30 05:35:37;;;;;;;31.45;14.73;;;;;;;;;;5007793;28;20034;-62
2023/01/30 05:38:02;;;;;;;39.92;17.83;;;;;;;;;;5005669;28;20112;-63
2023/01/30 05:40:28;;;;;;;36.83;18.10;;;;;;;;;;5007760;28;20518;-63
2023/01/30 05:42:53;;;;;;;44.65;17.80;;;;;;;;;;5011158;28;20034;-63
2023/01/30 05:45:18;;;;;;;39.17;18.25;;;;;;;;;;5011558;28;20037;-63
2023/01/30 05:47:48;;;;;;;32.78;15.45;;;;;;;;;;5014852;28;20038;-63
2023/01/30 05:50:14;;;;;;;34.20;16.00;;;;;;;;;;5009249;28;20038;-64
2023/01/30 05:52:39;;;;;;;39.20;22.42;;;;;;;;;;5014562;28;20026;-64
2023/01/30 05:55:05;;;;;;;37.13;17.60;;;;;;;;;;5014174;28;20038;-64
2023/01/30 05:57:30;;;;;;;30.08;15.40;;;;;;;;;;5014484;28;20406;-64
2023/01/30 05:59:56;;;;;;;44.95;20.58;;;;;;;;;;5013235;28;20059;-63
2023/01/30 06:02:21;;;;;;;37.65;18.85;;;;;;;;;;5014517;28;20508;-63
2023/01/30 06:04:46;;;;;;;32.65;16.35;;;;;;;;;;5013492;28;20036;-63
2023/01/30 06:07:13;;;;;;;29.33;15.05;;;;;;;;;;5013846;28;20400;-64
2023/01/30 06:09:38;;;;;;;39.67;17.85;;;;;;;;;;5013325;28;20057;-63
2023/01/30 06:12:05;;;;;;;37.00;20.60;;;;;;;;;;5015079;28;20208;-64
2023/01/30 06:14:31;;;;;;;33.92;17.48;;;;;;;;;;5011675;28;20037;-65
2023/01/30 06:16:56;;;;;;;32.70;15.05;;;;;;;;;;5014852;28;20034;-65
2023/01/30 06:19:22;;;;;;;33.70;15.35;;;;;;;;;;5013444;28;20041;-65
2023/01/30 06:21:47;;;;;;;41.50;19.75;;;;;;;;;;5014245;28;20064;-64
2023/01/30 06:24:13;;;;;;;29.80;15.18;;;;;;;;;;5013155;28;20375;-63
2023/01/30 06:26:38;;;;;;;27.02;14.50;;;;;;;;;;5012586;28;20124;-64
2023/01/30 06:29:03;;;;;;;33.25;16.83;;;;;;;;;;5008814;28;20124;-70
2023/01/30 06:31:29;;;;;;;30.77;15.13;;;;;;;;;;5011954;28;20022;-64
2023/01/30 06:33:54;;;;;;;32.38;14.55;;;;;;;;;;5011587;28;20064;-66
2023/01/30 06:36:20;;;;;;;26.63;16.20;;;;;;;;;;5009040;28;20053;-65
2023/01/30 06:38:45;;;;;;;25.98;13.57;;;;;;;;;;5012389;28;20084;-66
2023/01/30 06:41:10;;;;;;;24.65;12.85;;;;;;;;;;5012866;28;20065;-69
2023/01/30 06:43:36;;;;;;;23.45;12.57;;;;;;;;;;5010947;28;20038;-69
2023/01/30 06:46:01;;;;;;;30.65;15.50;;;;;;;;;;5013939;28;20091;-68
2023/01/30 06:48:26;;;;;;;30.42;13.93;;;;;;;;;;5010136;28;20891;-70
2023/01/30 06:50:52;;;;;;;20.77;11.23;;;;;;;;;;5012483;28;20036;-67
2023/01/30 06:53:17;;;;;;;20.80;9.85;;;;;;;;;;5012342;28;20084;-67
2023/01/30 06:55:43;;;;;;;21.63;10.45;;;;;;;;;;5011884;28;20104;-69
2023/01/30 06:58:10;;;;;;;26.50;13.52;;;;;;;;;;5012659;28;20033;-65
2023/01/30 07:00:38;;;;;;;33.28;13.55;;;;;;;;;;5010870;28;20084;-65
2023/01/30 07:03:04;;;;;;;20.85;9.25;;;;;;;;;;5013937;28;20037;-68
2023/01/30 07:05:29;;;;;;;21.38;10.18;;;;;;;;;;5009877;28;20042;-68
2023/01/30 07:07:55;;;;;;;23.63;11.20;;;;;;;;;;5010023;28;20037;-67
2023/01/30 07:10:20;;;;;;;22.20;10.65;;;;;;;;;;5011329;28;20034;-67
2023/01/30 07:12:46;;;;;;;22.15;10.80;;;;;;;;;;5011680;28;20084;-67
2023/01/30 07:15:12;;;;;;;19.98;10.23;;;;;;;;;;5009999;28;20066;-67
2023/01/30 07:17:41;;;;;;;22.30;9.48;;;;;;;;;;4997409;28;20144;-67
2023/01/30 07:20:08;;;;;;;18.60;9.85;;;;;;;;;;5008119;28;20049;-67
2023/01/30 07:22:33;;;;;;;22.70;12.73;;;;;;;;;;5011502;28;20522;-68
2023/01/30 07:24:58;;;;;;;19.83;10.43;;;;;;;;;;5013267;28;20118;-68
2023/01/30 07:27:24;;;;;;;21.30;11.38;;;;;;;;;;5011195;28;20062;-70
2023/01/30 07:29:49;;;;;;;20.13;9.80;;;;;;;;;;5013417;28;20026;-68
2023/01/30 07:32:17;;;;;;;16.02;8.27;;;;;;;;;;5010789;28;20030;-69
2023/01/30 07:34:42;;;;;;;19.13;8.48;;;;;;;;;;5012461;28;20222;-68
2023/01/30 07:37:08;;;;;;;18.25;8.77;;;;;;;;;;5010181;28;20537;-69
2023/01/30 07:39:34;;;;;;;20.33;9.68;;;;;;;;;;5012293;28;20038;-67
2023/01/30 07:42:00;;;;;;;15.85;7.82;;;;;;;;;;5009262;28;20521;-66
2023/01/30 07:44:25;;;;;;;16.85;6.88;;;;;;;;;;5009623;28;20038;-66
2023/01/30 07:46:51;;;;;;;14.63;6.82;;;;;;;;;;5013012;28;20034;-65
2023/01/30 07:49:16;;;;;;;12.90;6.45;;;;;;;;;;5010580;28;20029;-65
2023/01/30 07:51:41;;;;;;;13.68;4.97;;;;;;;;;;5009974;28;20029;-65
2023/01/30 07:54:07;;;;;;;12.38;4.95;;;;;;;;;;5011207;28;20372;-65
2023/01/30 07:56:32;;;;;;;16.45;6.00;;;;;;;;;;5012149;28;20038;-65
2023/01/30 07:58:58;;;;;;;14.98;5.10;;;;;;;;;;5011517;28;20108;-65
2023/01/30 08:01:23;;;;;;;16.50;4.15;;;;;;;;;;5012552;28;20037;-65
2023/01/30 08:03:49;;;;;;;11.65;4.10;;;;;;;;;;5010253;28;20029;-63
2023/01/30 08:06:17;;;;;;;12.00;3.20;;;;;;;;;;5009790;28;20029;-64
2023/01/30 08:08:42;;;;;;;13.40;3.45;;;;;;;;;;5009543;28;20022;-64
2023/01/30 08:11:08;;;;;;;15.05;4.22;;;;;;;;;;5010623;28;20026;-64
2023/01/30 08:13:34;;;;;;;7.95;2.58;;;;;;;;;;5006842;28;20388;-63
2023/01/30 08:16:04;;;;;;;9.25;3.25;;;;;;;;;;5010643;28;20038;-66
2023/01/30 08:18:32;;;;;;;15.30;3.92;;;;;;;;;;5008964;28;20033;-66
2023/01/30 08:20:58;;;;;;;15.30;3.20;;;;;;;;;;5000611;28;20054;-64
2023/01/30 08:23:24;;;;;;;9.80;2.40;;;;;;;;;;5008314;28;20813;-62
2023/01/30 08:25:52;;;;;;;11.77;2.30;;;;;;;;;;5011769;28;20069;-65
2023/01/30 08:28:18;;;;;;;12.23;2.60;;;;;;;;;;5009491;28;20071;-64
2023/01/30 08:30:43;;;;;;;8.50;2.90;;;;;;;;;;5026772;28;20517;-63
2023/01/30 08:33:08;;;;;;;8.90;2.60;;;;;;;;;;5011873;28;20041;-63
2023/01/30 08:35:34;;;;;;;10.05;2.05;;;;;;;;;;5005517;28;20038;-66
2023/01/30 08:37:59;;;;;;;10.27;1.95;;;;;;;;;;5010834;28;20049;-63
2023/01/30 08:40:25;;;;;;;8.25;2.30;;;;;;;;;;5011257;28;20045;-65
2023/01/30 08:42:50;;;;;;;13.10;2.67;;;;;;;;;;5010316;28;20042;-66
2023/01/30 08:45:15;;;;;;;7.72;2.40;;;;;;;;;;5011104;28;20364;-64
2023/01/30 08:47:41;;;;;;;17.25;2.83;;;;;;;;;;5010619;28;20117;-67
2023/01/30 08:50:07;;;;;;;10.55;2.22;;;;;;;;;;5010720;28;20030;-65
2023/01/30 08:52:33;;;;;;;8.52;1.88;;;;;;;;;;5008361;28;20092;-66
2023/01/30 08:54:58;;;;;;;11.75;1.98;;;;;;;;;;5011996;28;20505;-65
2023/01/30 08:57:23;;;;;;;11.90;2.60;;;;;;;;;;5009633;28;20030;-65
2023/01/30 08:59:50;;;;;;;11.68;2.50;;;;;;;;;;4994941;28;20475;-66
2023/01/30 09:02:15;;;;;;;7.13;1.92;;;;;;;;;;5009501;28;20033;-66
2023/01/30 09:04:41;;;;;;;9.98;2.13;;;;;;;;;;5010823;28;20022;-65
2023/01/30 09:07:06;;;;;;;10.65;2.15;;;;;;;;;;5010462;28;20502;-65
2023/01/30 09:09:32;;;;;;;13.45;2.92;;;;;;;;;;5010960;28;20037;-66
2023/01/30 09:11:57;;;;;;;10.70;2.22;;;;;;;;;;5010984;28;20113;-65
2023/01/30 09:14:22;;;;;;;11.65;2.25;;;;;;;;;;5011286;28;20026;-66
2023/01/30 09:16:54;;;;;;;12.43;2.20;;;;;;;;;;5006890;28;20038;-66
2023/01/30 09:19:25;;;;;;;9.77;2.30;;;;;;;;;;5011362;28;20041;-66
2023/01/30 09:21:51;;;;;;;13.80;2.40;;;;;;;;;;5007659;28;20030;-66
2023/01/30 09:24:17;;;;;;;11.52;2.30;;;;;;;;;;5010210;28;20040;-66
2023/01/30 09:26:44;;;;;;;9.90;2.00;;;;;;;;;;5010879;28;20034;-65
2023/01/30 09:29:13;;;;;;;11.82;2.40;;;;;;;;;;5009218;28;20083;-66
2023/01/30 09:31:39;;;;;;;8.32;1.98;;;;;;;;;;5010363;28;20034;-66
2023/01/30 09:34:05;;;;;;;12.85;2.45;;;;;;;;;;5009227;28;20398;-66
2023/01/30 09:36:30;;;;;;;13.73;2.25;;;;;;;;;;5010391;28;20054;-65
2023/01/30 09:38:56;;;;;;;13.00;2.35;;;;;;;;;;5010033;28;20033;-66
2023/01/30 09:41:59;;;;;;;11.15;2.50;;;;;;;;;;5011244;28;20025;-65
2023/01/30 09:45:05;;;;;;;11.35;2.33;;;;;;;;;;5010178;28;20041;-65
2023/01/30 09:48:04;;;;;;;9.40;1.85;;;;;;;;;;5009670;28;20030;-65
2023/01/30 09:50:58;;;;;;;13.25;2.17;;;;;;;;;;4994840;28;20038;-65
2023/01/30 09:53:55;;;;;;;10.25;2.13;;;;;;;;;;4982990;28;20058;-65
2023/01/30 09:56:21;;;;;;;10.75;2.95;;;;;;;;;;5005494;28;20368;-65
2023/01/30 09:58:52;;;;;;;9.90;2.20;;;;;;;;;;5010841;28;20045;-66
2023/01/30 10:01:55;;;;;;;11.27;2.67;;;;;;;;;;5007064;28;20056;-66
2023/01/30 10:04:34;;;;;;;12.13;2.47;;;;;;;;;;5008125;28;20072;-65
2023/01/30 10:07:05;;;;;;;11.70;1.95;;;;;;;;;;5010395;28;20121;-66
2023/01/30 10:09:36;;;;;;;16.52;2.85;;;;;;;;;;5008975;28;20033;-65
2023/01/30 10:12:27;;;;;;;16.83;2.50;;;;;;;;;;5010562;28;20030;-65
2023/01/30 10:14:58;;;;;;;7.03;1.77;;;;;;;;;;5006849;28;20493;-66
2023/01/30 10:17:45;;;;;;;9.20;2.20;;;;;;;;;;5013329;28;20128;-66
2023/01/30 10:20:30;;;;;;;9.93;1.95;;;;;;;;;;5009630;28;20033;-65
2023/01/30 10:23:29;;;;;;;13.23;2.40;;;;;;;;;;5002892;28;20054;-67
2023/01/30 10:26:00;;;;;;;12.50;2.20;;;;;;;;;;5009045;28;20033;-66
2023/01/30 10:28:34;;;;;;;10.25;2.95;;;;;;;;;;5008453;28;20045;-65
2023/01/30 10:31:04;;;;;;;15.73;2.88;;;;;;;;;;5011019;28;20036;-66
2023/01/30 10:33:43;;;;;;;12.65;2.60;;;;;;;;;;5012924;28;20104;-66
2023/01/30 10:36:13;;;;;;;12.75;2.42;;;;;;;;;;5013075;28;20048;-63
2023/01/30 10:38:45;;;;;;;14.88;2.33;;;;;;;;;;5011588;28;20116;-65
2023/01/30 10:41:29;;;;;;;13.90;2.17;;;;;;;;;;5011961;28;20041;-64
2023/01/30 10:44:04;;;;;;;9.15;2.25;;;;;;;;;;5013584;28;20495;-66
2023/01/30 10:46:58;;;;;;;9.63;2.33;;;;;;;;;;5013116;28;20048;-63
2023/01/30 10:49:39;;;;;;;13.60;2.90;;;;;;;;;;5001316;28;20046;-64
2023/01/30 10:52:26;;;;;;;;;;;;;;;;;;5001572;28;20033;-64
2023/01/30 10:55:06;;;;;;;9.18;2.08;;;;;;;;;;5012265;28;19952;-67
2023/01/30 10:57:35;;;;;;;13.55;2.65;;;;;;;;;;5011399;28;20482;-68
2023/01/30 11:00:04;;;;;;;13.07;2.45;;;;;;;;;;5014152;28;20038;-66
2023/01/30 11:02:35;;;;;;;13.05;2.85;;;;;;;;;;5012495;28;20033;-67
2023/01/30 11:05:13;;;;;;;9.82;2.53;;;;;;;;;;5013113;28;20046;-67
2023/01/30 11:07:42;;;;;;;16.10;2.55;;;;;;;;;;5010962;28;20038;-65
2023/01/30 11:10:19;;;;;;;16.05;3.03;;;;;;;;;;5013452;28;20497;-64
2023/01/30 11:12:45;;;;;;;10.48;2.13;;;;;;;;;;5012031;28;20026;-64
2023/01/30 11:15:11;;;;;;;15.95;2.40;;;;;;;;;;5011542;28;20142;-65
2023/01/30 11:17:41;;;;;;;13.07;2.70;;;;;;;;;;5013115;28;20112;-65
2023/01/30 11:20:23;;;;;;;10.68;2.35;;;;;;;;;;5012690;28;20026;-65
2023/01/30 11:23:05;;;;;;;19.45;3.15;;;;;;;;;;5011752;28;20053;-66
2023/01/30 11:25:45;;;;;;;9.68;2.17;;;;;;;;;;5011328;28;20107;-66
2023/01/30 11:28:14;;;;;;;15.13;2.60;;;;;;;;;;5011252;28;20117;-65
2023/01/30 11:30:40;;;;;;;10.70;2.10;;;;;;;;;;5012422;28;20041;-65
2023/01/30 11:33:11;;;;;;;11.45;2.00;;;;;;;;;;5011609;28;20025;-65
2023/01/30 11:35:50;;;;;;;11.10;2.25;;;;;;;;;;5011043;28;20029;-63
2023/01/30 11:38:23;;;;;;;11.65;2.53;;;;;;;;;;5000731;28;20052;-64
2023/01/30 11:40:48;;;;;;;12.85;2.25;;;;;;;;;;5012512;28;20116;-65
2023/01/30 11:43:13;;;;;;;10.20;2.05;;;;;;;;;;5008805;28;20172;-65
2023/01/30 11:45:49;;;;;;;9.43;2.15;;;;;;;;;;5006255;28;20042;-65
2023/01/30 11:48:21;;;;;;;15.40;3.15;;;;;;;;;;5011611;28;20040;-68
2023/01/30 11:50:54;;;;;;;14.63;2.30;;;;;;;;;;5012254;28;20030;-65
2023/01/30 11:53:34;;;;;;;7.40;2.40;;;;;;;;;;5012492;28;20045;-66
2023/01/30 11:56:21;;;;;;;7.30;1.80;;;;;;;;;;5010089;28;20042;-67
2023/01/30 11:58:57;;;;;;;8.52;1.98;;;;;;;;;;5011179;28;20120;-64
2023/01/30 12:01:29;;;;;;;10.05;2.50;;;;;;;;;;5011067;28;20084;-66
2023/01/30 12:03:56;;;;;;;18.02;2.42;;;;;;;;;;5011275;28;20686;-65
2023/01/30 12:06:22;;;;;;;8.10;2.63;;;;;;;;;;5008582;28;20038;-65
2023/01/30 12:08:51;;;;;;;11.85;2.72;;;;;;;;;;5010917;28;20045;-66
2023/01/30 12:11:29;;;;;;;15.52;2.60;;;;;;;;;;5008997;28;20033;-64
2023/01/30 12:14:07;;;;;;;11.50;2.67;;;;;;;;;;5014311;28;20493;-64
2023/01/30 12:16:57;;;;;;;10.77;2.28;;;;;;;;;;5013596;28;20387;-64
2023/01/30 12:19:35;;;;;;;13.27;2.90;;;;;;;;;;4997344;28;20033;-62
2023/01/30 12:22:17;;;;;;;12.40;2.15;;;;;;;;;;5011478;28;20297;-64
2023/01/30 12:24:51;;;;;;;14.25;2.75;;;;;;;;;;5009990;28;20352;-64
2023/01/30 12:27:50;;;;;;;16.70;2.25;;;;;;;;;;5010699;28;20480;-64
2023/01/30 12:30:22;;;;;;;7.72;2.28;;;;;;;;;;5007996;28;20061;-63
2023/01/30 12:32:48;;;;;;;7.35;1.75;;;;;;;;;;5020915;28;20052;-65
2023/01/30 12:35:16;;;;;;;13.10;2.05;;;;;;;;;;5024372;28;20459;-64
2023/01/30 12:37:56;;;;;;;8.80;2.20;;;;;;;;;;5007984;28;20111;-66
2023/01/30 12:40:39;;;;;;;11.27;2.38;;;;;;;;;;5009672;28;20063;-64
2023/01/30 12:43:15;;;;;;;8.50;2.10;;;;;;;;;;5010154;28;20029;-64
2023/01/30 12:45:56;;;;;;;10.85;2.20;;;;;;;;;;5011279;28;20030;-63
2023/01/30 12:48:56;;;;;;;14.30;2.35;;;;;;;;;;5012076;28;20038;-66
2023/01/30 12:51:53;;;;;;;7.78;2.20;;;;;;;;;;5010385;28;20034;-63
2023/01/30 12:54:18;;;;;;;6.88;2.10;;;;;;;;;;4994827;28;20050;-65
2023/01/30 12:56:56;;;;;;;15.38;2.80;;;;;;;;;;5007182;28;20046;-67
2023/01/30 12:59:38;;;;;;;10.55;2.22;;;;;;;;;;5008388;28;20037;-63
2023/01/30 13:02:18;;;;;;;13.95;3.20;;;;;;;;;;5008823;28;20037;-64
2023/01/30 13:04:58;;;;;;;11.33;2.77;;;;;;;;;;5000978;28;20431;-64
2023/01/30 13:07:40;;;;;;;12.35;2.72;;;;;;;;;;5008245;28;20064;-64
2023/01/30 13:10:34;;;;;;;14.93;3.20;;;;;;;;;;5009588;28;20034;-63
2023/01/30 13:13:07;;;;;;;18.77;2.20;;;;;;;;;;5007741;28;20213;-66
2023/01/30 13:15:37;;;;;;;13.52;2.35;;;;;;;;;;5011720;28;20026;-65
2023/01/30 13:18:17;;;;;;;18.80;2.78;;;;;;;;;;5009522;28;20034;-66
2023/01/30 13:20:52;;;;;;;15.02;2.72;;;;;;;;;;4995150;28;20088;-64
2023/01/30 13:23:31;;;;;;;13.27;2.55;;;;;;;;;;5005889;28;20034;-65
2023/01/30 13:26:02;;;;;;;10.07;2.38;;;;;;;;;;5011147;28;20026;-66
2023/01/30 13:28:34;;;;;;;12.23;2.20;;;;;;;;;;5007367;28;20066;-63
2023/01/30 13:31:03;;;;;;;10.98;2.25;;;;;;;;;;5008902;28;20056;-66
2023/01/30 13:33:32;;;;;;;9.25;1.90;;;;;;;;;;5011597;28;20070;-64
2023/01/30 13:36:21;;;;;;;11.40;2.45;;;;;;;;;;5007635;28;20022;-66
2023/01/30 13:39:09;;;;;;;15.02;2.30;;;;;;;;;;5010552;28;20029;-65
2023/01/30 13:41:39;;;;;;;8.75;2.15;;;;;;;;;;5005812;28;20069;-65
2023/01/30 13:44:27;;;;;;;10.45;2.20;;;;;;;;;;5009396;28;20033;-62
2023/01/30 13:46:54;;;;;;;9.43;1.67;;;;;;;;;;5009484;28;20041;-65
2023/01/30 13:49:33;;;;;;;15.15;2.40;;;;;;;;;;5008686;28;20034;-63
2023/01/30 13:52:30;;;;;;;12.23;2.65;;;;;;;;;;4992217;28;20344;-65
2023/01/30 13:55:34;;;;;;;13.35;2.67;;;;;;;;;;4995303;28;20073;-64
2023/01/30 13:58:51;;;;;;;12.35;2.35;;;;;;;;;;5006761;28;20085;-62
2023/01/30 14:01:18;;;;;;;13.63;2.10;;;;;;;;;;4986721;28;20111;-63
2023/01/30 14:03:43;;;;;;;14.60;2.28;;;;;;;;;;5010412;28;20467;-68
2023/01/30 14:06:13;;;;;;;14.68;2.63;;;;;;;;;;5010463;28;20091;-63
2023/01/30 14:08:48;;;;;;;13.43;2.72;;;;;;;;;;5012547;28;20117;-65
2023/01/30 14:11:29;;;;;;;11.45;2.70;;;;;;;;;;5009478;28;20030;-67
2023/01/30 14:14:02;;;;;;;12.15;2.00;;;;;;;;;;5011592;28;20117;-66
2023/01/30 14:16:43;;;;;;;12.10;2.10;;;;;;;;;;5012123;28;20426;-64
2023/01/30 14:19:27;;;;;;;14.40;2.70;;;;;;;;;;5003101;28;20451;-64
2023/01/30 14:21:55;;;;;;;7.45;1.80;;;;;;;;;;5013605;28;20497;-64
2023/01/30 14:24:26;;;;;;;14.18;2.80;;;;;;;;;;5012312;28;20030;-64
2023/01/30 14:26:58;;;;;;;12.70;2.63;;;;;;;;;;5013592;28;20429;-63
2023/01/30 14:29:36;;;;;;;14.20;2.42;;;;;;;;;;5025463;28;20052;-61
2023/01/30 14:32:21;;;;;;;12.73;2.50;;;;;;;;;;5010929;28;20625;-63
2023/01/30 14:34:59;;;;;;;11.00;2.15;;;;;;;;;;5009805;28;20530;-64
2023/01/30 14:37:34;;;;;;;13.75;2.15;;;;;;;;;;5011845;28;20049;-64
2023/01/30 14:39:59;;;;;;;12.32;2.20;;;;;;;;;;4994257;28;20538;-65
2023/01/30 14:42:28;;;;;;;15.20;2.60;;;;;;;;;;4997934;28;20100;-64
2023/01/30 14:45:00;;;;;;;15.18;2.50;;;;;;;;;;5006523;28;20030;-63
2023/01/30 14:47:28;;;;;;;13.35;2.50;;;;;;;;;;5013495;28;20037;-64
2023/01/30 14:49:54;;;;;;;15.73;2.63;;;;;;;;;;5013308;28;20041;-65
2023/01/30 14:52:33;;;;;;;13.02;2.30;;;;;;;;;;5008445;28;20105;-64
2023/01/30 14:54:58;;;;;;;13.40;2.60;;;;;;;;;;5011058;28;20045;-63